Latest Weather Observations for Mandurah

IDW60901

Issued at 2:41 pm WST Sunday 24 July 2016 (issued every 10 minutes, with the page automatically refreshed every 10 minutes)

About weather observations | Map of Perth area stations | Latest observations for Perth area | Other Formats
Station Details ID: 009977 Name: MANDURAH Lat: -32.52 Lon: 115.71 Height: 3.0 m
Data from the previous 72 hours. | See also: Recent months at Mandurah
Date/Time
WST
Temp
°C
App
Temp
°C
Dew
Point
°C
Rel
Hum
%
Delta-T
°C
Wind Press
QNH
hPa
Press
MSL
hPa
Rain since
9am
mm
Dir  Spd
km/h
Gust
km/h
Spd
kts
Gust
kts
24/02:30pm 13.5 10.6 4.9 56 4.0 SSE 9 15 5 8 1026.5 1026.5 0.0
24/02:00pm 14.1 11.7 5.2 55 4.1 SSE 7 13 4 7 1026.6 1026.6 0.0
24/01:30pm 14.1 11.2 4.4 52 4.5 SE 9 17 5 9 1026.8 1026.8 0.0
24/01:00pm 14.4 11.7 5.5 55 4.2 SE 9 15 5 8 1027.2 1027.2 0.0
24/12:30pm 14.1 11.6 4.9 54 4.3 SE 7 15 4 8 1027.6 1027.6 0.0
24/12:00pm 13.7 12.0 5.8 59 3.7 N 4 6 2 3 1028.2 1028.2 0.0
24/11:30am 12.5 10.5 6.1 65 3.0 N 6 7 3 4 1028.6 1028.6 0.0
24/11:00am 12.2 10.8 5.4 63 3.1 NNE 2 4 1 2 1029.0 1029.0 0.0
24/10:30am 11.4 9.9 4.8 64 3.0 NNE 2 4 1 2 1029.3 1029.3 0.0
24/10:00am 10.9 9.0 5.0 67 2.7 NNE 4 6 2 3 1029.3 1029.3 0.0
24/09:30am 9.9 7.7 5.3 73 2.1 NE 6 9 3 5 1029.2 1029.2 0.0
24/09:00am 8.5 6.7 5.4 81 1.4 N 4 6 2 3 1029.0 1029.0 1.0
24/08:30am 7.9 5.9 6.4 90 0.7 E 6 7 3 4 1028.7 1028.7 1.0
24/08:00am 5.6 4.3 3.9 89 0.7 CALM 0 4 0 2 1028.3 1028.3 1.0
24/07:30am 5.0 3.5 3.2 88 0.7 CALM 0 0 0 0 1027.8 1027.8 1.0
24/07:00am 4.8 3.3 3.0 88 0.7 CALM 0 0 0 0 1027.5 1027.5 1.0
24/06:30am 5.0 3.2 3.2 88 0.7 ESE 2 4 1 2 1027.1 1027.1 1.0
24/06:00am 5.0 2.8 3.3 89 0.7 ESE 4 6 2 3 1026.9 1026.9 1.0
24/05:30am 5.2 2.7 3.5 89 0.7 ESE 6 6 3 3 1026.9 1026.9 1.0
24/05:00am 5.3 3.1 3.6 89 0.7 ESE 4 6 2 3 1026.8 1026.8 1.0
24/04:30am 5.6 3.2 4.1 90 0.6 ESE 6 7 3 4 1026.7 1026.7 1.0
24/04:00am 5.3 3.1 3.6 89 0.7 SE 4 6 2 3 1026.7 1026.7 1.0
24/03:30am 5.6 3.5 3.9 89 0.7 SE 4 6 2 3 1026.7 1026.7 1.0
24/03:00am 5.7 3.6 4.0 89 0.7 SSE 4 6 2 3 1026.9 1026.9 1.0
24/02:30am 6.0 4.7 4.2 88 0.8 CALM 0 0 0 0 1027.1 1027.1 1.0
24/02:00am 6.3 5.0 4.0 85 1.0 CALM 0 0 0 0 1027.0 1027.0 1.0
24/01:30am 6.5 5.1 3.8 83 1.1 CALM 0 0 0 0 1026.9 1026.9 1.0
24/01:00am 7.2 5.9 4.2 81 1.3 CALM 0 0 0 0 1026.9 1026.9 1.0
24/12:30am 8.1 6.2 4.7 79 1.5 SSE 4 6 2 3 1026.8 1026.8 1.0
24/12:00am 8.3 6.2 4.1 75 1.8 SSE 4 6 2 3 1026.9 1026.9 1.0
 
Date/Time
WST
Temp
°C
App
Temp
°C
Dew
Point
°C
Rel
Hum
%
Delta-T
°C
Wind Press
QNH
hPa
Press
MSL
hPa
Rain since
9am
mm
Dir  Spd
km/h
Gust
km/h
Spd
kts
Gust
kts
23/11:30pm 8.7 6.1 4.1 73 2.0 SE 7 11 4 6 1026.9 1026.9 1.0
23/11:00pm 8.3 5.8 3.9 74 1.9 ESE 6 7 3 4 1027.0 1027.0 1.0
23/10:30pm 9.6 6.8 5.0 73 2.1 SE 9 13 5 7 1026.7 1026.7 1.0
23/10:00pm 10.0 7.6 5.4 73 2.1 SSE 7 13 4 7 1026.7 1026.7 1.0
23/09:30pm 10.2 7.4 5.2 71 2.3 SSE 9 17 5 9 1026.3 1026.3 1.0
23/09:00pm 10.5 6.9 5.1 69 2.4 SSE 13 20 7 11 1025.9 1025.9 1.0
23/08:30pm 10.9 6.9 4.8 66 2.8 SSE 15 22 8 12 1025.7 1025.7 1.0
23/08:00pm 11.2 7.2 4.7 64 2.9 S 15 26 8 14 1025.5 1025.5 1.0
23/07:30pm 11.8 7.8 4.8 62 3.2 S 15 24 8 13 1025.2 1025.2 1.0
23/07:00pm 12.3 8.9 5.7 64 3.1 S 13 20 7 11 1024.8 1024.8 1.0
23/06:30pm 12.5 8.9 5.2 61 3.4 S 13 19 7 10 1024.4 1024.4 1.0
23/06:00pm 12.8 9.2 5.2 60 3.5 S 13 20 7 11 1024.0 1024.0 1.0
23/05:30pm 13.0 9.1 5.2 59 3.6 S 15 24 8 13 1023.5 1023.5 1.0
23/05:00pm 13.5 8.6 4.1 53 4.3 S 19 26 10 14 1023.0 1023.0 1.0
23/04:30pm 14.0 9.2 4.6 53 4.3 S 19 28 10 15 1022.8 1022.8 1.0
23/04:00pm 14.1 8.8 5.2 55 4.1 S 22 33 12 18 1022.6 1022.6 1.0
23/03:30pm 14.5 9.7 5.8 56 4.1 S 20 32 11 17 1022.5 1022.5 1.0
23/03:00pm 14.6 9.6 6.4 58 3.9 S 22 33 12 18 1022.3 1022.3 1.0
23/02:30pm 14.7 9.9 7.5 62 3.6 S 22 35 12 19 1022.3 1022.3 1.0
23/02:00pm 14.3 9.3 8.0 66 3.1 S 24 35 13 19 1022.1 1022.1 1.0
23/01:30pm 14.0 9.7 9.4 74 2.4 S 22 33 12 18 1022.1 1022.1 1.0
23/01:00pm 13.3 11.1 12.0 92 0.7 S 15 28 8 15 1022.1 1022.1 1.0
23/12:30pm 14.1 10.3 9.9 76 2.2 SW 20 33 11 18 1022.3 1022.3 0.6
23/12:00pm 15.5 12.0 10.3 71 2.7 WSW 19 26 10 14 1022.6 1022.6 0.6
23/11:30am 14.3 11.9 10.1 76 2.2 SSW 13 20 7 11 1022.9 1022.9 0.4
23/11:00am 14.6 12.2 10.2 75 2.3 W 13 17 7 9 1023.1 1023.1 0.4
23/10:30am 14.5 12.2 10.5 77 2.1 W 13 19 7 10 1023.1 1023.1 0.4
23/10:00am 12.9 11.3 10.3 84 1.3 SSW 9 17 5 9 1023.5 1023.5 0.4
23/09:30am 13.5 11.3 10.7 83 1.5 W 13 22 7 12 1023.3 1023.3 0.2
23/09:00am 13.5 12.2 9.9 79 1.8 W 7 11 4 6 1023.1 1023.1 2.6
23/08:30am 12.3 9.0 10.9 91 0.7 WSW 19 26 10 14 1023.0 1023.0 2.6
23/08:00am 9.6 8.3 9.1 97 0.2 ENE 6 11 3 6 1023.0 1023.0 2.6
23/07:30am 9.1 8.4 8.5 96 0.3 ENE 2 6 1 3 1022.9 1022.9 2.6
23/07:00am 9.2 6.7 8.4 95 0.4 ENE 11 17 6 9 1022.6 1022.6 2.4
23/06:30am 9.1 7.4 7.7 91 0.7 E 6 9 3 5 1022.7 1022.7 1.4
23/06:00am 9.8 8.9 7.7 87 1.0 S 2 4 1 2 1022.9 1022.9 1.2
23/05:30am 10.7 9.5 8.1 84 1.3 NE 4 7 2 4 1022.5 1022.5 0.0
23/05:00am 10.7 8.1 7.6 81 1.5 NNE 11 15 6 8 1022.6 1022.6 0.0
23/04:30am 10.9 8.6 7.6 80 1.6 NNE 9 13 5 7 1022.6 1022.6 0.0
23/04:00am 11.0 8.5 6.6 74 2.1 NNE 9 11 5 6 1022.9 1022.9 0.0
23/03:30am 10.6 8.6 6.4 75 2.0 ESE 6 9 3 5 1023.3 1023.3 0.0
23/03:00am 11.2 9.7 6.7 74 2.1 NE 4 7 2 4 1023.3 1023.3 0.0
23/02:30am 11.3 9.2 6.6 73 2.2 NNE 7 9 4 5 1023.4 1023.4 0.0
23/02:00am 10.8 9.3 6.6 75 2.0 N 4 7 2 4 1023.5 1023.5 0.0
23/01:30am 10.2 9.2 5.6 73 2.1 CALM 0 0 0 0 1023.4 1023.4 0.0
23/01:00am 10.6 8.9 6.0 73 2.1 NE 4 6 2 3 1023.3 1023.3 0.0
23/12:30am 10.8 8.6 6.2 73 2.1 NNE 7 11 4 6 1023.6 1023.6 0.0
23/12:00am 10.8 8.2 6.0 72 2.2 NNE 9 13 5 7 1023.7 1023.7 0.0
 
Date/Time
WST
Temp
°C
App
Temp
°C
Dew
Point
°C
Rel
Hum
%
Delta-T
°C
Wind Press
QNH
hPa
Press
MSL
hPa
Rain since
9am
mm
Dir  Spd
km/h
Gust
km/h
Spd
kts
Gust
kts
22/11:30pm 10.5 8.2 5.7 72 2.2 ENE 7 9 4 5 1023.7 1023.7 0.0
22/11:00pm 10.4 9.0 5.4 71 2.3 ENE 2 6 1 3 1023.9 1023.9 0.0
22/10:30pm 10.4 8.6 5.2 70 2.4 E 4 6 2 3 1023.9 1023.9 0.0
22/10:00pm 10.8 8.6 5.3 69 2.5 SE 6 9 3 5 1024.0 1024.0 0.0
22/09:30pm 10.9 8.2 5.4 69 2.5 ESE 9 13 5 7 1023.8 1023.8 0.0
22/09:00pm 10.9 8.2 5.4 69 2.5 ESE 9 13 5 7 1023.9 1023.9 0.0
22/08:30pm 11.2 8.8 5.3 67 2.7 SE 7 13 4 7 1024.0 1024.0 0.0
22/08:00pm 11.6 9.3 5.5 66 2.8 SSE 7 13 4 7 1024.1 1024.1 0.0
22/07:30pm 12.0 9.3 5.4 64 3.1 SE 9 15 5 8 1023.9 1023.9 0.0
22/07:00pm 12.2 10.1 5.6 64 3.1 SSE 6 9 3 5 1023.8 1023.8 0.0
22/06:30pm 11.9 9.7 5.1 63 3.1 S 6 9 3 5 1023.8 1023.8 0.0
22/06:00pm 12.4 10.0 4.4 58 3.6 S 6 7 3 4 1023.6 1023.6 0.0
22/05:30pm 12.7 10.3 4.4 57 3.8 S 6 9 3 5 1023.3 1023.3 0.0
22/05:00pm 13.3 9.8 3.4 51 4.4 S 11 17 6 9 1023.2 1023.2 0.0
22/04:30pm 13.8 10.3 3.3 49 4.7 S 11 17 6 9 1023.2 1023.2 0.0
22/04:00pm 14.0 10.3 2.6 46 5.0 S 11 17 6 9 1023.1 1023.1 0.0
22/03:30pm 14.2 11.1 3.7 49 4.8 SSE 9 17 5 9 1023.1 1023.1 0.0
22/03:00pm 14.2 11.1 3.4 48 4.8 S 9 13 5 7 1023.1 1023.1 0.0
22/02:30pm 14.3 11.3 4.3 51 4.6 SSE 9 15 5 8 1023.2 1023.2 0.0
22/02:00pm 14.1 11.0 3.8 50 4.7 SSE 9 13 5 7 1023.4 1023.4 0.0
22/01:30pm 14.0 10.4 3.2 48 4.8 SSE 11 19 6 10 1023.4 1023.4 0.0
22/01:00pm 13.9 10.5 3.9 51 4.5 SSE 11 19 6 10 1023.6 1023.6 0.0
22/12:30pm 13.6 10.1 3.7 51 4.5 SSE 11 19 6 10 1023.9 1023.9 0.0
22/12:00pm 13.1 8.6 4.0 54 4.1 SE 17 22 9 12 1024.0 1024.0 0.0
22/11:30am 12.9 9.2 4.3 56 3.9 SSE 13 19 7 10 1024.2 1024.2 0.0
22/11:00am 12.8 9.1 4.3 56 3.8 SE 13 20 7 11 1024.4 1024.4 0.0
22/10:30am 12.5 8.8 4.2 57 3.8 SE 13 20 7 11 1024.3 1024.3 0.0
22/10:00am 11.8 7.7 4.3 60 3.4 SE 15 22 8 12 1024.1 1024.1 0.0
22/09:30am 11.2 7.5 4.7 64 2.9 SE 13 22 7 12 1023.9 1023.9 0.0
22/09:00am 10.2 7.3 4.8 69 2.4 SE 9 13 5 7 1023.3 1023.3 1.6
22/08:30am 9.3 6.7 4.3 71 2.2 SE 7 13 4 7 1022.6 1022.6 1.6
22/08:00am 8.9 5.9 4.3 73 2.0 SE 9 13 5 7 1022.2 1022.2 1.6
22/07:30am 8.7 5.4 4.5 75 1.9 SE 11 19 6 10 1021.6 1021.6 1.6
22/07:00am 8.7 5.4 4.5 75 1.8 SE 11 15 6 8 1021.2 1021.2 1.6
22/06:30am 9.2 5.6 4.8 74 2.0 SE 13 19 7 10 1020.9 1020.9 1.6
22/06:00am 9.3 6.0 4.7 73 2.0 SE 11 17 6 9 1020.6 1020.6 1.6
22/05:30am 9.8 6.2 5.0 72 2.2 SE 13 20 7 11 1020.2 1020.2 1.6
22/05:00am 10.1 6.7 6.1 76 1.8 SE 13 20 7 11 1019.9 1019.9 1.6
22/04:30am 10.1 8.3 7.0 81 1.5 SE 6 9 3 5 1019.7 1019.7 1.6
22/04:00am 10.7 8.7 7.2 79 1.7 SSE 7 9 4 5 1019.4 1019.4 1.6
22/03:30am 10.9 9.0 7.4 79 1.7 SSE 7 13 4 7 1018.9 1018.9 1.6
22/03:00am 11.1 8.7 7.0 76 1.9 S 9 17 5 9 1018.9 1018.9 1.4
22/02:30am 11.8 7.2 6.7 71 2.4 S 20 35 11 19 1018.7 1018.7 1.2
22/02:00am 12.6 9.4 6.9 68 2.7 S 13 20 7 11 1018.4 1018.4 1.2
22/01:30am 13.1 9.9 6.7 65 3.1 SSW 13 20 7 11 1018.0 1018.0 1.2
22/01:00am 13.2 8.7 6.1 62 3.4 SSW 19 32 10 17 1017.6 1017.6 1.2
22/12:30am 13.3 9.0 6.9 65 3.1 SSW 19 28 10 15 1017.2 1017.2 1.2
22/12:00am 13.6 9.2 6.7 63 3.3 SSW 19 35 10 19 1016.9 1016.9 1.2
 
Date/Time
WST
Temp
°C
App
Temp
°C
Dew
Point
°C
Rel
Hum
%
Delta-T
°C
Wind Press
QNH
hPa
Press
MSL
hPa
Rain since
9am
mm
Dir  Spd
km/h
Gust
km/h
Spd
kts
Gust
kts
21/11:30pm 13.9 8.1 6.3 60 3.6 SW 26 41 14 22 1016.6 1016.6 1.2
21/11:00pm 14.4 7.7 5.5 55 4.2 SW 30 50 16 27 1016.2 1016.2 1.2
21/10:57pm 14.5 7.8 5.6 55 4.2 SW 30 50 16 27 1016.2 1016.2 1.2
21/10:30pm 13.7 9.7 9.0 73 2.4 SW 20 32 11 17 1016.0 1016.0 1.2
21/10:00pm 13.8 9.5 9.3 74 2.3 SSW 22 39 12 21 1015.7 1015.7 1.2
21/09:30pm 14.5 9.3 8.7 68 2.9 WSW 26 48 14 26 1015.5 1015.5 0.6
21/09:00pm 13.9 9.1 8.7 71 2.6 SW 24 35 13 19 1015.1 1015.1 0.6
21/08:30pm 14.4 8.8 8.6 68 2.9 WSW 28 46 15 25 1014.7 1014.7 0.6
21/08:18pm 14.6 8.9 8.5 67 3.1 WSW 28 48 15 26 1014.4 1014.4 0.6
21/08:00pm 13.4 7.9 7.6 68 2.8 WSW 26 46 14 25 1014.4 1014.4 0.6
21/07:49pm 14.6 8.9 8.5 67 3.1 WSW 28 50 15 27 1014.2 1014.2 0.4
21/07:30pm 14.4 9.4 9.4 72 2.6 WSW 26 43 14 23 1013.9 1013.9 0.4
21/07:00pm 13.5 8.0 9.0 74 2.3 W 28 43 15 23 1013.7 1013.7 0.4
21/06:35pm 13.5 7.1 9.2 75 2.2 WSW 33 57 18 31 1013.4 1013.4 0.2
21/06:30pm 14.1 7.8 9.7 75 2.3 W 33 52 18 28 1013.3 1013.3 0.2
21/06:00pm 13.4 6.5 8.7 73 2.4 W 35 54 19 29 1012.9 1012.9 0.2
21/05:51pm 13.5 7.2 9.7 78 1.9 W 33 54 18 29 1012.9 1012.9 0.2
21/05:30pm 13.3 7.2 8.2 71 2.5 W 30 41 16 22 1012.6 1012.6 0.2
21/05:06pm 14.2 6.3 9.4 73 2.5 WNW 41 63 22 34 1012.4 1012.4 0.2
21/05:00pm 14.2 6.5 8.8 70 2.7 WNW 39 54 21 29 1012.4 1012.4 0.2
21/04:38pm 13.8 8.1 9.8 77 2.1 W 30 52 16 28 1012.4 1012.4 0.2
21/04:30pm 12.8 8.8 9.1 78 1.9 W 20 33 11 18 1012.6 1012.6 0.2
21/04:09pm 14.3 6.7 7.6 64 3.3 WNW 37 65 20 35 1012.5 1012.5 0.2
21/04:00pm 14.6 6.9 6.9 60 3.8 WNW 37 48 20 26 1012.4 1012.4 0.2
21/03:30pm 14.4 7.9 6.3 58 3.9 W 30 39 16 21 1012.5 1012.5 0.2
21/03:00pm 14.3 7.8 4.9 53 4.4 W 28 41 15 22 1012.7 1012.7 0.2

Latest Capital City Observations: Canberra | Sydney | Melbourne | Brisbane | Adelaide | Perth | Hobart | Darwin

Other Formats:

Comma delimited format used in spreadsheet applications
http://www.bom.gov.au/fwo/IDW60901/IDW60901.94605.axf

JavaScript Object Notation format (JSON) in row-major order
http://www.bom.gov.au/fwo/IDW60901/IDW60901.94605.json